Flight Track Log - Related Links

Times and Time Zones

All times are in EDT time to prevent confusion due to time zone crossing. See the DAL790 flight status page for this flight to view local times or setup timezone preferences in your user account.

Time Position Orientation Groundspeed Altitude Reporting Facility
EDT Latitude Longitude Course Direction KTS MPH feet Rate Location/Type
Thu 11:08:01 AM 36.0739 -115.1078 90° East 150 173 3,600  Level Los Angeles Center
Thu 11:09:06 AM 36.0761 -115.0261 88° East 204 235 6,400 2,031 Climbing Los Angeles Center
Thu 11:10:08 AM 36.0761 -114.9342 90° East 253 291 7,900 2,371 Climbing Los Angeles Center
Thu 11:11:00 AM 36.1833 -114.6479 90° East  Level FlightAware Approximate
Thu 11:11:10 AM 36.0928 -114.8431 77° East 268 308 11,300  Level Los Angeles Center
Thu 11:12:00 AM 36.1833 -114.5159 90° East  Level FlightAware Approximate
Thu 11:12:12 AM 36.1119 -114.7333 78° East 322 371 13,100  Level Los Angeles Center
Thu 11:13:00 AM 36.1833 -114.3839 90° East  Level FlightAware Approximate
Thu 11:13:14 AM 36.1692 -114.6361 54° Northeast 367 422 15,600  Level Los Angeles Center
Thu 11:14:28 AM 36.2836 -114.5547 30° Northeast 393 452 18,200 2,321 Climbing Los Angeles Center
Thu 11:15:31 AM 36.4025 -114.4686 30° Northeast 409 471 20,900 2,371 Climbing Los Angeles Center
Thu 11:16:32 AM 36.5072 -114.3914 31° Northeast 428 493 23,100 2,081 Climbing Los Angeles Center
Thu 11:17:35 AM 36.6144 -114.3136 30° Northeast 441 507 25,200 1,824 Climbing Los Angeles Center
Thu 11:18:37 AM 36.7239 -114.2342 30° Northeast 451 519 26,900 1,887 Climbing Los Angeles Center
Thu 11:19:39 AM 36.8350 -114.1542 30° Northeast 458 527 29,100 1,984 Climbing Los Angeles Center
Thu 11:20:41 AM 36.9647 -114.0586 30° Northeast 454 522 31,000 919 Climbing Los Angeles Center
Thu 11:21:43 AM 37.0728 -113.9797 30° Northeast 451 519 31,000 154 Level Los Angeles Center
Thu 11:22:38 AM 37.1742 -113.9069 30° Northeast 448 516 31,300 1,026 Climbing Salt Lake Center
Thu 11:23:40 AM 37.2831 -113.8261 31° Northeast 451 519 33,000 823 Climbing Salt Lake Center
Thu 11:24:42 AM 37.3917 -113.7456 31° Northeast 451 519 33,000  Level Salt Lake Center
Thu 11:25:44 AM 37.4992 -113.6656 31° Northeast 448 516 33,000  Level Salt Lake Center
Thu 11:26:46 AM 37.6056 -113.5864 31° Northeast 443 510 33,000  Level Salt Lake Center
Thu 11:27:48 AM 37.7122 -113.5069 31° Northeast 442 509 33,000  Level Salt Lake Center
Thu 11:28:50 AM 37.8397 -113.4106 31° Northeast 441 507 33,000  Level Salt Lake Center
Thu 11:29:52 AM 37.9450 -113.3308 31° Northeast 439 505 33,000 -242 Level Salt Lake Center
Thu 11:30:54 AM 38.0506 -113.2522 30° Northeast 437 503 32,500 -677 Descending Salt Lake Center
Thu 11:31:56 AM 38.1567 -113.1711 31° Northeast 440 506 31,600 -726 Descending Salt Lake Center
Thu 11:32:58 AM 38.2586 -113.0933 31° Northeast 429 494 31,000 -290 Descending Salt Lake Center
Thu 11:34:00 AM 38.3489 -113.1186 348° North 359 413 31,000  Level Salt Lake Center
Thu 11:35:02 AM 38.4250 -113.1936 322° Northwest 347 399 31,000  Level Salt Lake Center
Thu 11:36:04 AM 38.5286 -113.2419 340° North 342 394 31,000  Level Salt Lake Center
Thu 11:37:06 AM 38.6194 -113.1756 30° Northeast 366 421 31,000  Level Salt Lake Center
Thu 11:38:08 AM 38.7022 -113.0936 38° Northeast 374 430 31,000  Level Salt Lake Center
Thu 11:39:10 AM 38.7861 -113.0119 37° Northeast 376 433 31,000  Level Salt Lake Center
Thu 11:40:12 AM 38.8700 -112.9300 37° Northeast 378 435 31,000  Level Salt Lake Center
Thu 11:41:14 AM 38.9544 -112.8486 37° Northeast 378 435 31,000 -48 Level Salt Lake Center
Thu 11:42:16 AM 39.0533 -112.7503 38° Northeast 375 432 30,900 -532 Descending Salt Lake Center
Thu 11:43:18 AM 39.1356 -112.6708 37° Northeast 372 428 29,900 -1,161 Descending Salt Lake Center
Thu 11:44:20 AM 39.2147 -112.5931 37° Northeast 360 414 28,500 -1,694 Descending Salt Lake Center
Thu 11:45:22 AM 39.2978 -112.5128 37° Northeast 356 410 26,400 -1,887 Descending Salt Lake Center
Thu 11:46:24 AM 39.3811 -112.4608 26° Northeast 335 386 24,600 -1,742 Descending Salt Lake Center
Thu 11:47:26 AM 39.4633 -112.4147 23° Northeast 325 374 22,800 -1,742 Descending Salt Lake Center
Thu 11:48:28 AM 39.5436 -112.3706 23° Northeast 316 364 21,000 -1,984 Descending Salt Lake Center
Thu 11:49:30 AM 39.6364 -112.3167 24° Northeast 307 353 18,700 -1,306 Descending Salt Lake Center
Thu 11:50:32 AM 39.7156 -112.2711 24° Northeast 309 356 18,300 -823 Descending Salt Lake Center
Thu 11:51:34 AM 39.7900 -112.2256 25° Northeast 304 350 17,000 -1,385 Descending Salt Lake Center
Thu 11:52:42 AM 39.8728 -112.1892 19° North 287 330 15,300 -968 Descending Salt Lake Center
Thu 11:53:38 AM 39.9328 -112.1411 32° Northeast 280 322 15,000 -508 Descending Salt Lake Center
Thu 11:54:40 AM 40.0039 -112.1003 24° Northeast 280 322 14,300 -902 Descending Salt Lake Center
Thu 11:55:51 AM 40.0956 -112.0533 21° North 280 322 13,000 -629 Descending Salt Lake Center
Thu 11:56:44 AM 40.1572 -112.0072 30° Northeast 274 315 13,000  Level Salt Lake Center
Thu 11:57:46 AM 40.2158 -111.9714 25° Northeast 237 273 13,000  Level Salt Lake Center
Thu 11:58:48 AM 40.2781 -111.9558 11° North 233 268 13,000 -375 Level Salt Lake Center
Thu 11:59:54 AM 40.3533 -111.9636 355° North 232 267 12,200 -1,276 Descending Salt Lake Center
Thu 12:00:55 PM 40.4178 -111.9617 North 227 261 10,300 -1,279 Descending Salt Lake Center
Thu 12:01:56 PM 40.4833 -111.9675 356° North 231 266 9,600 -744 Descending Salt Lake Center
Thu 12:02:56 PM 40.5461 -111.9686 359° North 228 262 8,800 -984 Descending Salt Lake Center
Thu 12:03:58 PM 40.6131 -111.9800 353° North 229 264 7,600 -1,161 Descending Salt Lake Center

Login

Don't have an account? Register now (free) for customized features, flight alerts, and more!